Time;durP1;ratioP1;P1;durP2;ratioP2;P2;SDS_P1;SDS_P2;PMS_P1;PMS_P2;Temp;Humidity;BMP_temperature;BMP_pressure;BME280_temperature;BME280_humidity;BME280_pressure;Samples;Min_cycle;Max_cycle;Signal;HPM_P1;HPM_P2
2021/07/18 00:01:52;;;;;;;18.97;17.07;;;;;;;20.99;75.89;100842.19;5031569;28;20395;-77
2021/07/18 00:04:21;;;;;;;19.07;17.10;;;;;;;20.98;76.12;100835.03;5031550;28;20397;-78
2021/07/18 00:06:46;;;;;;;19.38;16.02;;;;;;;20.95;76.20;100836.47;5031556;28;20835;-77
2021/07/18 00:09:12;;;;;;;19.77;16.47;;;;;;;20.93;76.23;100835.16;5031398;28;20474;-77
2021/07/18 00:11:40;;;;;;;18.00;15.30;;;;;;;20.91;76.11;100837.41;5030087;28;20406;-77
2021/07/18 00:14:08;;;;;;;20.33;14.23;;;;;;;20.89;75.71;100834.94;5031470;28;20399;-77
2021/07/18 00:16:34;;;;;;;14.17;12.57;;;;;;;20.88;75.37;100832.50;5031492;28;20400;-77
2021/07/18 00:18:59;;;;;;;16.52;12.43;;;;;;;20.86;74.74;100840.25;5031280;28;20419;-77
2021/07/18 00:21:24;;;;;;;14.87;12.37;;;;;;;20.85;74.85;100833.09;5031400;28;20394;-77
2021/07/18 00:23:50;;;;;;;16.43;11.10;;;;;;;20.82;74.53;100828.19;5031396;28;20719;-77
2021/07/18 00:26:15;;;;;;;14.65;11.18;;;;;;;20.79;74.24;100835.13;5031539;28;20893;-78
2021/07/18 00:28:41;;;;;;;12.63;11.27;;;;;;;20.78;74.40;100836.25;5013478;28;20787;-77
2021/07/18 00:31:07;;;;;;;21.13;11.50;;;;;;;20.77;74.21;100839.31;5011635;28;20392;-77
2021/07/18 00:33:32;;;;;;;13.17;11.73;;;;;;;20.75;74.31;100836.84;5011612;28;20396;-77
2021/07/18 00:35:57;;;;;;;12.33;10.97;;;;;;;20.71;74.22;100830.34;5020243;28;20410;-78
2021/07/18 00:38:23;;;;;;;13.20;11.73;;;;;;;20.71;74.08;100833.09;5013572;28;20517;-78
2021/07/18 00:40:49;;;;;;;13.27;11.37;;;;;;;20.68;74.51;100831.72;5031148;28;20395;-77
2021/07/18 00:43:15;;;;;;;18.17;11.60;;;;;;;20.67;74.20;100837.56;5031192;28;20395;-77
2021/07/18 00:45:40;;;;;;;15.75;11.27;;;;;;;20.65;74.45;100832.34;5031240;28;20410;-77
2021/07/18 00:48:07;;;;;;;13.93;10.83;;;;;;;20.63;74.40;100836.53;5029867;28;20753;-77
2021/07/18 00:50:33;;;;;;;12.93;11.05;;;;;;;20.62;74.08;100832.13;5031083;28;20441;-78
2021/07/18 00:52:58;;;;;;;15.60;10.30;;;;;;;20.57;73.87;100827.53;5030967;28;20527;-78
2021/07/18 00:55:23;;;;;;;13.32;9.70;;;;;;;20.55;73.47;100827.00;5031262;28;20879;-78
2021/07/18 00:57:50;;;;;;;17.83;10.80;;;;;;;20.53;73.71;100834.78;5030899;28;20430;-77
2021/07/18 01:00:17;;;;;;;11.93;9.10;;;;;;;20.53;73.10;100829.25;5030936;28;20406;-77
2021/07/18 01:02:43;;;;;;;14.63;9.38;;;;;;;20.55;73.52;100834.44;5031016;28;20391;-77
2021/07/18 01:05:10;;;;;;;9.90;8.75;;;;;;;20.54;73.14;100832.84;5030931;28;20498;-78
2021/07/18 01:07:36;;;;;;;10.45;8.70;;;;;;;20.51;73.02;100831.50;5030979;28;20489;-77
2021/07/18 01:10:04;;;;;;;11.13;8.05;;;;;;;20.50;73.07;100829.88;5030725;28;20438;-78
2021/07/18 01:12:31;;;;;;;10.98;8.52;;;;;;;20.49;72.57;100830.16;5030938;28;20483;-77
2021/07/18 01:14:57;;;;;;;9.50;7.30;;;;;;;20.44;72.58;100831.09;5030866;28;20400;-77
2021/07/18 01:17:22;;;;;;;12.90;8.40;;;;;;;20.43;72.85;100817.59;5030856;28;20399;-77
2021/07/18 01:19:47;;;;;;;9.40;7.57;;;;;;;20.41;72.41;100817.91;5030682;28;20415;-78
2021/07/18 01:22:13;;;;;;;9.63;7.20;;;;;;;20.39;72.03;100820.13;5032092;28;20387;-77
2021/07/18 01:24:38;;;;;;;10.65;6.60;;;;;;;20.39;72.05;100817.38;5033024;28;20398;-77
2021/07/18 01:27:05;;;;;;;8.57;6.70;;;;;;;20.37;72.05;100825.13;5029459;28;20392;-77
2021/07/18 01:29:32;;;;;;;12.20;6.28;;;;;;;20.33;70.77;100818.59;5014537;28;20853;-77
2021/07/18 01:31:58;;;;;;;9.73;6.03;;;;;;;20.33;71.37;100815.03;5014465;28;20411;-77
2021/07/18 01:34:24;;;;;;;10.83;6.47;;;;;;;20.32;71.20;100816.94;5014393;28;20392;-77
2021/07/18 01:36:51;;;;;;;7.83;6.03;;;;;;;20.32;70.64;100813.41;5014341;28;20423;-77
2021/07/18 01:39:17;;;;;;;9.73;5.28;;;;;;;20.31;70.08;100822.78;5014294;28;20524;-78
2021/07/18 01:41:43;;;;;;;9.00;4.80;;;;;;;20.28;69.17;100812.38;5014360;28;20397;-77
2021/07/18 01:44:08;;;;;;;5.72;5.22;;;;;;;20.25;69.97;100824.78;5024518;28;20449;-77
2021/07/18 01:46:35;;;;;;;9.20;4.93;;;;;;;20.24;69.81;100823.13;5016315;28;20442;-77
2021/07/18 01:49:03;;;;;;;7.18;4.55;;;;;;;20.24;69.33;100819.56;5033868;28;20387;-77
2021/07/18 01:51:29;;;;;;;6.60;4.60;;;;;;;20.23;69.26;100821.47;5033986;28;20439;-78
2021/07/18 01:53:56;;;;;;;4.63;3.90;;;;;;;20.22;69.09;100814.34;5033801;28;20391;-77
2021/07/18 01:56:22;;;;;;;5.28;4.15;;;;;;;20.19;68.58;100817.69;5033605;28;20453;-77
2021/07/18 01:58:50;;;;;;;6.72;4.05;;;;;;;20.17;68.53;100814.44;5033471;28;20816;-77
2021/07/18 02:01:15;;;;;;;6.93;4.00;;;;;;;20.15;68.59;100814.72;5033577;28;20423;-77
2021/07/18 02:03:41;;;;;;;9.15;4.40;;;;;;;20.14;68.32;100817.78;5033638;28;20580;-77
2021/07/18 02:06:07;;;;;;;6.80;3.72;;;;;;;20.10;68.36;100812.06;5033479;28;20398;-77
2021/07/18 02:08:32;;;;;;;6.37;3.70;;;;;;;20.11;68.17;100824.72;5033517;28;20391;-77
2021/07/18 02:10:57;;;;;;;6.73;4.10;;;;;;;20.10;68.58;100814.00;5033534;28;20391;-77
2021/07/18 02:13:22;;;;;;;6.32;3.63;;;;;;;20.07;68.60;100815.41;5033521;28;20405;-77
2021/07/18 02:15:49;;;;;;;7.83;3.77;;;;;;;20.04;68.38;100813.25;5033520;28;20394;-77
2021/07/18 02:18:14;;;;;;;6.13;3.78;;;;;;;20.03;68.30;100821.81;5033175;28;20490;-78
2021/07/18 02:20:40;;;;;;;5.33;3.67;;;;;;;20.02;68.44;100814.69;5033323;28;20829;-78
2021/07/18 02:23:05;;;;;;;7.88;3.65;;;;;;;20.02;68.05;100809.19;5033300;28;20394;-77
2021/07/18 02:25:30;;;;;;;8.33;3.97;;;;;;;19.99;67.69;100807.81;5015494;28;20399;-77
2021/07/18 02:27:56;;;;;;;8.35;3.55;;;;;;;19.98;68.25;100814.47;5016400;28;20442;-77
2021/07/18 02:30:23;;;;;;;5.40;3.33;;;;;;;19.98;68.22;100808.97;5013421;28;20396;-77
2021/07/18 02:32:50;;;;;;;7.38;3.45;;;;;;;19.97;67.60;100806.50;5013678;28;20432;-78
2021/07/18 02:35:16;;;;;;;5.63;3.17;;;;;;;19.97;68.23;100812.00;5024007;28;20399;-78
2021/07/18 02:37:43;;;;;;;5.03;3.03;;;;;;;19.94;68.17;100810.66;5033063;28;20747;-78
2021/07/18 02:40:09;;;;;;;11.87;3.43;;;;;;;19.96;68.53;100816.66;5032879;28;20751;-78
2021/07/18 02:42:35;;;;;;;3.78;3.10;;;;;;;19.94;67.97;100816.16;5015231;28;20878;-77
2021/07/18 02:45:01;;;;;;;6.85;3.58;;;;;;;19.94;68.50;100818.09;5031640;28;20759;-77
2021/07/18 02:47:26;;;;;;;6.67;3.13;;;;;;;19.95;68.73;100817.00;5032779;28;20391;-77
2021/07/18 02:49:51;;;;;;;8.18;3.17;;;;;;;19.89;67.80;100820.94;5032776;28;20399;-78
2021/07/18 02:52:17;;;;;;;6.27;3.37;;;;;;;19.86;67.97;100819.56;5032799;28;20815;-77
2021/07/18 02:54:43;;;;;;;4.97;3.27;;;;;;;19.85;68.59;100815.22;5032776;28;20399;-77
2021/07/18 02:57:08;;;;;;;6.28;3.42;;;;;;;19.83;68.87;100806.41;5032398;28;20442;-77
2021/07/18 02:59:33;;;;;;;8.20;3.50;;;;;;;19.82;69.37;100804.81;5032636;28;20446;-77
2021/07/18 03:01:59;;;;;;;6.67;3.20;;;;;;;19.82;68.91;100813.06;5032503;28;20470;-77
2021/07/18 03:04:29;;;;;;;6.07;3.10;;;;;;;19.79;68.26;100816.38;5032681;28;20732;-78
2021/07/18 03:06:54;;;;;;;4.43;2.90;;;;;;;19.78;68.35;100816.69;5032387;28;20442;-77
2021/07/18 03:09:23;;;;;;;7.10;2.90;;;;;;;19.78;68.61;100816.69;5032316;28;20395;-77
2021/07/18 03:11:51;;;;;;;4.97;2.53;;;;;;;19.72;67.84;100815.13;5032433;28;20456;-77
2021/07/18 03:14:18;;;;;;;3.80;2.70;;;;;;;19.73;68.48;100830.50;5032309;28;20380;-78
2021/07/18 03:16:43;;;;;;;3.80;2.63;;;;;;;19.73;69.17;100822.25;5032390;28;20421;-77
2021/07/18 03:19:11;;;;;;;4.63;2.50;;;;;;;19.68;68.14;100829.47;5032304;28;20415;-78
2021/07/18 03:21:36;;;;;;;8.73;2.85;;;;;;;19.67;68.55;100827.84;5014498;28;20835;-77
2021/07/18 03:24:02;;;;;;;6.23;3.23;;;;;;;19.67;68.39;100827.84;5014493;28;20395;-77
2021/07/18 03:26:28;;;;;;;4.32;2.50;;;;;;;19.65;68.26;100821.00;5027239;28;20389;-77
2021/07/18 03:28:53;;;;;;;4.67;2.60;;;;;;;19.65;68.80;100832.81;5012264;28;20496;-78
2021/07/18 03:31:18;;;;;;;7.97;2.87;;;;;;;19.62;68.62;100821.59;5012356;28;20420;-77
2021/07/18 03:33:44;;;;;;;9.10;2.53;;;;;;;19.61;68.51;100825.44;5012314;28;20439;-78
2021/07/18 03:36:09;;;;;;;5.17;2.50;;;;;;;19.59;67.89;100817.47;5011038;28;20880;-77
2021/07/18 03:38:34;;;;;;;5.17;2.33;;;;;;;19.59;67.44;100830.44;5012177;28;20463;-78
2021/07/18 03:40:59;;;;;;;4.80;2.30;;;;;;;19.59;68.10;100830.44;5012133;28;20393;-77
2021/07/18 03:43:25;;;;;;;5.00;2.08;;;;;;;19.58;68.12;100826.03;5024118;28;21004;-78
2021/07/18 03:45:50;;;;;;;4.50;2.37;;;;;;;19.58;68.42;100826.88;5013667;28;20395;-78
2021/07/18 03:48:15;;;;;;;3.37;2.23;;;;;;;19.57;68.56;100816.97;5031854;28;20402;-78
2021/07/18 03:50:41;;;;;;;2.43;2.20;;;;;;;19.56;67.88;100828.28;5014082;28;20772;-77
2021/07/18 03:53:06;;;;;;;4.80;2.33;;;;;;;19.54;67.50;100831.31;5031813;28;20435;-77
2021/07/18 03:55:31;;;;;;;4.23;3.10;;;;;;;19.49;67.80;100834.13;5031716;28;20399;-77
2021/07/18 03:57:56;;;;;;;5.37;2.90;;;;;;;19.46;68.25;100828.41;5031409;28;20786;-79
2021/07/18 04:00:22;;;;;;;3.60;2.63;;;;;;;19.41;68.42;100831.22;5031470;28;20400;-77
2021/07/18 04:02:47;;;;;;;5.50;3.63;;;;;;;19.36;68.68;100832.09;5031803;28;20865;-77
2021/07/18 04:05:13;;;;;;;5.13;3.63;;;;;;;19.32;68.51;100847.50;5031647;28;20746;-77
2021/07/18 04:07:38;;;;;;;7.00;3.83;;;;;;;19.24;68.30;100842.66;5031590;28;20395;-77
2021/07/18 04:10:04;;;;;;;8.07;4.03;;;;;;;19.21;69.08;100851.47;5031583;28;20425;-77
2021/07/18 04:12:30;;;;;;;7.70;3.90;;;;;;;19.18;69.40;100852.88;5031583;28;20475;-77
2021/07/18 04:14:56;;;;;;;5.90;3.73;;;;;;;19.13;69.12;100849.38;5031423;28;21017;-78
2021/07/18 04:17:21;;;;;;;9.02;4.10;;;;;;;19.13;69.59;100854.88;5031285;28;20398;-78
2021/07/18 04:19:46;;;;;;;6.80;4.70;;;;;;;19.12;70.01;100856.81;5031393;28;21116;-77
2021/07/18 04:22:12;;;;;;;5.70;3.97;;;;;;;19.11;70.66;100852.41;5031395;28;20478;-77
2021/07/18 04:24:37;;;;;;;9.03;4.43;;;;;;;19.10;70.36;100853.50;5031359;28;20402;-77
2021/07/18 04:27:02;;;;;;;11.17;4.17;;;;;;;19.10;70.81;100859.00;5013600;28;20407;-77
2021/07/18 04:29:27;;;;;;;6.37;4.03;;;;;;;19.09;70.53;100856.56;5031291;28;20444;-78
2021/07/18 04:31:53;;;;;;;7.30;4.60;;;;;;;19.07;70.78;100848.59;5031316;28;20441;-78
2021/07/18 04:34:18;;;;;;;7.60;4.10;;;;;;;19.07;71.05;100853.28;5031145;28;20909;-77
2021/07/18 04:36:44;;;;;;;5.93;4.40;;;;;;;19.04;70.83;100849.19;5031354;28;20391;-77
2021/07/18 04:39:10;;;;;;;7.57;4.32;;;;;;;19.03;71.08;100855.00;5031229;28;20433;-77
2021/07/18 04:41:37;;;;;;;6.55;4.40;;;;;;;19.03;71.26;100858.53;5030541;28;20387;-78
2021/07/18 04:44:02;;;;;;;4.85;4.38;;;;;;;19.05;71.78;100853.59;5030855;28;20403;-78
2021/07/18 04:46:28;;;;;;;6.82;4.10;;;;;;;19.09;70.74;100870.31;5031113;28;20394;-78
2021/07/18 04:48:53;;;;;;;8.40;4.20;;;;;;;19.11;70.01;100873.56;5013246;28;20430;-78
2021/07/18 04:51:18;;;;;;;8.10;4.23;;;;;;;19.07;69.69;100875.25;5030939;28;20746;-77
2021/07/18 04:53:43;;;;;;;5.22;4.15;;;;;;;19.07;69.96;100878.00;5031056;28;20391;-78
2021/07/18 04:56:09;;;;;;;4.63;3.90;;;;;;;19.06;70.36;100879.97;5013358;28;20383;-77
2021/07/18 04:58:34;;;;;;;5.83;3.93;;;;;;;19.07;70.41;100883.50;5033945;28;20418;-78
2021/07/18 05:00:59;;;;;;;9.63;5.20;;;;;;;19.07;71.00;100878.81;5034363;28;20402;-78
2021/07/18 05:03:25;;;;;;;7.18;3.90;;;;;;;19.09;71.02;100884.03;5016442;28;20493;-77
2021/07/18 05:05:50;;;;;;;5.30;4.10;;;;;;;19.11;71.01;100881.81;5034811;28;20388;-77
2021/07/18 05:08:15;;;;;;;5.93;4.20;;;;;;;19.11;71.05;100877.13;5016553;28;20486;-77
2021/07/18 05:10:40;;;;;;;6.80;4.03;;;;;;;19.14;70.74;100876.56;5034600;28;20790;-77
2021/07/18 05:13:06;;;;;;;7.25;3.95;;;;;;;19.17;70.56;100883.38;5034188;28;20418;-77
2021/07/18 05:15:32;;;;;;;6.93;3.70;;;;;;;19.20;71.19;100885.56;5016942;28;20395;-77
2021/07/18 05:18:08;;;;;;;7.63;3.47;;;;;;;19.20;71.22;100880.06;5033653;28;20916;-77
2021/07/18 05:20:33;;;;;;;3.47;3.03;;;;;;;19.21;70.90;100887.19;5034553;28;20453;-78
2021/07/18 05:22:58;;;;;;;3.97;2.60;;;;;;;19.24;70.72;100885.78;5034346;28;20863;-77
2021/07/18 05:25:23;;;;;;;6.00;3.40;;;;;;;19.27;70.40;100875.03;5034283;28;20393;-77
2021/07/18 05:27:49;;;;;;;4.43;2.50;;;;;;;19.31;69.85;100881.59;5034299;28;20410;-78
2021/07/18 05:30:14;;;;;;;6.70;2.60;;;;;;;19.34;69.43;100885.69;5034044;28;20453;-78
2021/07/18 05:32:40;;;;;;;4.77;2.47;;;;;;;19.37;69.50;100883.16;5034021;28;20476;-77
2021/07/18 05:35:06;;;;;;;3.67;2.63;;;;;;;19.40;68.85;100881.75;5034316;28;20391;-77
2021/07/18 05:37:32;;;;;;;4.80;2.67;;;;;;;19.42;69.17;100896.91;5033208;28;20430;-77
2021/07/18 05:39:57;;;;;;;2.83;2.47;;;;;;;19.44;68.54;100891.91;5033733;28;20447;-77
2021/07/18 05:42:22;;;;;;;5.43;2.40;;;;;;;19.47;67.98;100885.81;5033758;28;20395;-77
2021/07/18 05:44:47;;;;;;;3.40;1.83;;;;;;;19.49;67.72;100899.28;5033812;28;20387;-78
2021/07/18 05:47:13;;;;;;;10.37;2.17;;;;;;;19.50;67.76;100890.72;5031877;28;20414;-77
2021/07/18 05:49:39;;;;;;;7.55;2.28;;;;;;;19.52;67.27;100899.53;5032912;28;20425;-77
2021/07/18 05:52:05;;;;;;;5.43;2.13;;;;;;;19.54;67.60;100896.47;5034390;28;20401;-77
2021/07/18 05:54:31;;;;;;;3.05;1.85;;;;;;;19.58;67.49;100892.03;5037679;28;20440;-77
2021/07/18 05:56:56;;;;;;;6.18;2.13;;;;;;;19.62;67.60;100890.31;5031652;28;20427;-77
2021/07/18 05:59:22;;;;;;;5.93;2.00;;;;;;;19.65;66.92;100887.81;5033099;28;20457;-78
2021/07/18 06:01:52;;;;;;;4.20;1.80;;;;;;;19.66;66.39;100897.69;5030902;28;20430;-77
2021/07/18 06:04:18;;;;;;;5.68;2.30;;;;;;;19.67;66.89;100898.50;5032989;28;20406;-77
2021/07/18 06:06:43;;;;;;;4.80;2.10;;;;;;;19.70;66.75;100906.16;5032171;28;20407;-77
2021/07/18 06:09:08;;;;;;;5.60;2.40;;;;;;;19.72;66.87;100903.13;5024363;28;20445;-77
2021/07/18 06:11:34;;;;;;;5.25;2.00;;;;;;;19.74;67.11;100900.88;5039613;28;20445;-77
2021/07/18 06:14:00;;;;;;;6.70;2.13;;;;;;;19.75;66.95;100886.84;5041865;28;20401;-78
2021/07/18 06:16:26;;;;;;;5.43;1.90;;;;;;;19.77;66.75;100881.88;5036838;28;20453;-77
2021/07/18 06:18:51;;;;;;;5.72;2.25;;;;;;;19.79;66.55;100879.63;5042263;28;22192;-77
2021/07/18 06:21:16;;;;;;;5.70;2.03;;;;;;;19.81;66.96;100888.41;5050222;28;20428;-78
2021/07/18 06:23:42;;;;;;;5.70;2.00;;;;;;;19.84;66.59;100887.00;5033759;28;20410;-77
2021/07/18 06:26:07;;;;;;;3.58;2.05;;;;;;;19.88;66.74;100890.81;5014783;28;20981;-78
2021/07/18 06:28:33;;;;;;;3.17;1.80;;;;;;;19.89;66.30;100887.75;5018278;28;21024;-78
2021/07/18 06:30:58;;;;;;;3.78;2.03;;;;;;;19.94;66.71;100886.88;5032681;28;20493;-79
2021/07/18 06:33:23;;;;;;;3.73;1.60;;;;;;;19.98;66.29;100882.41;5031181;28;20400;-78
2021/07/18 06:35:49;;;;;;;6.10;1.67;;;;;;;20.01;65.95;100890.06;5035365;28;20414;-77
2021/07/18 06:38:15;;;;;;;3.03;1.63;;;;;;;20.04;65.77;100883.97;5035223;28;20425;-77
2021/07/18 06:40:40;;;;;;;2.43;1.83;;;;;;;20.04;65.64;100882.03;5044088;28;20399;-77
2021/07/18 06:43:05;;;;;;;3.67;1.63;;;;;;;20.04;65.21;100882.03;5033861;28;20904;-77
2021/07/18 06:45:31;;;;;;;3.63;2.00;;;;;;;20.08;65.86;100882.28;5031750;28;20779;-77
2021/07/18 06:47:56;;;;;;;4.93;1.90;;;;;;;20.12;65.84;100884.09;5034467;28;20405;-78
2021/07/18 06:50:21;;;;;;;2.80;1.80;;;;;;;20.10;65.25;100889.09;5032018;28;20409;-78
2021/07/18 06:52:46;;;;;;;5.50;1.87;;;;;;;20.06;65.27;100892.72;5035013;28;20461;-78
2021/07/18 06:55:12;;;;;;;3.08;1.67;;;;;;;20.13;65.69;100893.19;5032217;28;20499;-78
2021/07/18 06:57:38;;;;;;;3.53;1.80;;;;;;;20.19;65.33;100897.50;5037137;28;20409;-79
2021/07/18 07:00:06;;;;;;;2.60;1.90;;;;;;;20.22;65.22;100901.59;5032424;28;20458;-79
2021/07/18 07:02:31;;;;;;;3.47;1.73;;;;;;;20.25;64.88;100896.31;5030996;28;20418;-79
2021/07/18 07:04:57;;;;;;;5.20;1.70;;;;;;;20.27;65.03;100904.28;5031568;28;20407;-78
2021/07/18 07:07:22;;;;;;;2.58;1.60;;;;;;;20.31;64.81;100905.34;5032170;28;20834;-77
2021/07/18 07:09:49;;;;;;;2.73;1.50;;;;;;;20.32;65.06;100907.78;5028701;28;20399;-77
2021/07/18 07:12:15;;;;;;;5.05;1.90;;;;;;;20.36;65.25;100908.00;5015009;28;20383;-77
2021/07/18 07:14:40;;;;;;;2.90;1.60;;;;;;;20.39;64.98;100915.66;5020127;28;20422;-76
2021/07/18 07:17:05;;;;;;;2.60;1.90;;;;;;;20.40;65.09;100909.06;5026533;28;20596;-79
2021/07/18 07:19:31;;;;;;;2.63;1.60;;;;;;;20.39;64.38;100912.91;4996058;28;20899;-79
2021/07/18 07:21:58;;;;;;;3.17;1.90;;;;;;;20.41;64.41;100908.75;5031578;28;20395;-79
2021/07/18 07:24:24;;;;;;;3.60;2.35;;;;;;;20.44;64.35;100915.59;5028949;28;20418;-77
2021/07/18 07:26:49;;;;;;;7.33;1.97;;;;;;;20.44;64.37;100896.31;5031410;28;20402;-77
2021/07/18 07:29:14;;;;;;;5.77;1.70;;;;;;;20.43;63.93;100906.53;5028030;28;20397;-77
2021/07/18 07:31:40;;;;;;;4.07;1.97;;;;;;;20.46;63.77;100910.59;5027978;28;20407;-76
2021/07/18 07:34:05;;;;;;;3.53;1.98;;;;;;;20.49;63.63;100907.25;5025885;28;20403;-77
2021/07/18 07:36:30;;;;;;;4.30;1.67;;;;;;;20.54;64.26;100899.75;5027440;28;20399;-78
2021/07/18 07:38:56;;;;;;;1.57;1.47;;;;;;;20.60;63.86;100901.28;5031162;28;20973;-78
2021/07/18 07:41:22;;;;;;;5.87;1.63;;;;;;;20.55;62.96;100906.88;5021456;28;20413;-77
2021/07/18 07:43:47;;;;;;;2.70;1.80;;;;;;;20.57;63.85;100907.41;5022643;28;20429;-77
2021/07/18 07:46:13;;;;;;;3.67;1.70;;;;;;;20.59;63.55;100907.09;5026591;28;20429;-77
2021/07/18 07:48:38;;;;;;;2.90;1.67;;;;;;;20.61;63.67;100908.41;5027925;28;20441;-77
2021/07/18 07:51:04;;;;;;;3.47;1.95;;;;;;;20.65;63.28;100911.38;5022849;28;20412;-78
2021/07/18 07:53:30;;;;;;;3.17;1.55;;;;;;;20.68;63.35;100910.81;5011363;28;20406;-78
2021/07/18 07:55:56;;;;;;;4.10;1.50;;;;;;;20.71;64.24;100911.00;5027920;28;20415;-78
2021/07/18 07:58:21;;;;;;;3.97;1.85;;;;;;;20.77;64.02;100905.41;5011768;28;20688;-79
2021/07/18 08:00:46;;;;;;;2.80;1.80;;;;;;;20.83;64.10;100907.78;5028800;28;20438;-78
2021/07/18 08:03:12;;;;;;;3.33;1.90;;;;;;;20.85;62.85;100891.75;5028557;28;20818;-79
2021/07/18 08:05:37;;;;;;;6.23;1.90;;;;;;;20.89;63.01;100894.72;5030754;28;20399;-78
2021/07/18 08:08:04;;;;;;;3.63;2.07;;;;;;;20.91;63.30;100895.25;5030889;28;20888;-78
2021/07/18 08:10:30;;;;;;;2.92;2.15;;;;;;;20.99;63.23;100897.31;5027299;28;20896;-78
2021/07/18 08:12:56;;;;;;;5.45;2.10;;;;;;;21.03;63.13;100892.81;5029088;28;20506;-77
2021/07/18 08:15:22;;;;;;;2.27;1.50;;;;;;;21.04;63.11;100887.00;5032035;28;20974;-78
2021/07/18 08:17:48;;;;;;;2.37;1.63;;;;;;;21.08;63.43;100892.72;5027351;28;20438;-78
2021/07/18 08:20:17;;;;;;;3.00;1.98;;;;;;;21.12;62.68;100888.28;5012364;28;20419;-78
2021/07/18 08:22:49;;;;;;;3.70;2.10;;;;;;;21.18;62.06;100896.13;4998084;28;20503;-79
2021/07/18 08:25:17;;;;;;;3.03;1.90;;;;;;;21.21;62.19;100898.28;5005973;28;20402;-79
2021/07/18 08:27:43;;;;;;;5.03;2.17;;;;;;;21.24;62.75;100891.34;5003636;28;20414;-79
2021/07/18 08:30:10;;;;;;;4.75;1.75;;;;;;;21.30;62.46;100884.63;5036219;28;20419;-78
2021/07/18 08:32:35;;;;;;;4.70;1.67;;;;;;;21.37;63.25;100884.22;5029543;28;20401;-78
2021/07/18 08:35:01;;;;;;;4.47;1.88;;;;;;;21.47;63.47;100872.97;5018136;28;20494;-77
2021/07/18 08:37:27;;;;;;;3.90;1.97;;;;;;;21.57;63.12;100892.06;5036725;28;20418;-78
2021/07/18 08:39:52;;;;;;;3.90;1.93;;;;;;;21.65;62.36;100885.81;5034671;28;20410;-78
2021/07/18 08:42:18;;;;;;;5.22;2.45;;;;;;;21.67;61.72;100891.84;5015557;28;20489;-77
2021/07/18 08:44:46;;;;;;;4.87;2.17;;;;;;;21.74;62.24;100893.06;5027782;28;20404;-79
2021/07/18 08:47:11;;;;;;;5.35;2.00;;;;;;;21.82;62.02;100891.53;5048469;28;20403;-79
2021/07/18 08:49:40;;;;;;;4.30;2.17;;;;;;;21.89;62.42;100888.34;5033873;28;20940;-78
2021/07/18 08:52:06;;;;;;;3.78;2.00;;;;;;;21.95;61.85;100895.41;5032983;28;20477;-78
2021/07/18 08:54:32;;;;;;;3.05;1.58;;;;;;;22.01;61.71;100896.94;5032933;28;20406;-80
2021/07/18 08:57:02;;;;;;;4.72;2.47;;;;;;;22.07;61.43;100898.44;5033159;28;20898;-79
2021/07/18 08:59:37;;;;;;;6.18;1.83;;;;;;;22.18;61.04;100889.63;5029169;28;20481;-81
2021/07/18 09:02:05;;;;;;;8.82;2.17;;;;;;;22.31;60.92;100889.88;5012941;28;20404;-82
2021/07/18 09:04:30;;;;;;;4.53;1.90;;;;;;;22.37;60.19;100883.09;5025185;28;20961;-81
2021/07/18 09:07:04;;;;;;;6.20;1.90;;;;;;;22.40;59.56;100888.00;5033692;28;20499;-81
2021/07/18 09:09:30;;;;;;;3.42;1.92;;;;;;;22.49;59.31;100886.94;5033391;28;20391;-82
2021/07/18 09:12:05;;;;;;;3.58;1.70;;;;;;;22.61;59.03;100887.19;5012944;28;20803;-79
2021/07/18 09:14:42;;;;;;;3.83;1.65;;;;;;;22.70;58.27;100882.56;5023541;28;20414;-77
2021/07/18 09:17:15;;;;;;;1.83;1.73;;;;;;;22.82;58.90;100881.97;5034235;28;20384;-81
2021/07/18 09:19:43;;;;;;;5.13;2.10;;;;;;;22.97;58.89;100878.00;5034157;28;20527;-81
2021/07/18 09:22:23;;;;;;;3.75;1.50;;;;;;;23.10;58.82;100883.44;5033510;28;20854;-81
2021/07/18 09:24:57;;;;;;;3.20;1.73;;;;;;;23.28;59.19;100876.84;5030424;28;20489;-81
2021/07/18 09:27:31;;;;;;;6.80;1.80;;;;;;;23.44;57.85;100874.53;5026826;28;20918;-81
2021/07/18 09:30:09;;;;;;;3.13;1.83;;;;;;;23.61;57.54;100874.53;5024941;28;20411;-81
2021/07/18 09:32:36;;;;;;;4.85;2.20;;;;;;;23.73;56.79;100872.00;5028266;28;20399;-81
2021/07/18 09:35:11;;;;;;;7.63;1.63;;;;;;;23.82;56.45;100871.16;5031963;28;20993;-81
2021/07/18 09:37:39;;;;;;;7.05;1.92;;;;;;;23.83;55.66;100864.50;5046189;28;20407;-82
2021/07/18 09:40:08;;;;;;;3.73;1.87;;;;;;;24.01;56.89;100874.44;5036612;28;20426;-82
2021/07/18 09:42:38;;;;;;;2.35;1.98;;;;;;;24.19;54.83;100867.81;5015246;28;20423;-81
2021/07/18 09:45:14;;;;;;;4.03;2.07;;;;;;;24.33;55.08;100862.13;5024531;28;20481;-81
2021/07/18 09:47:49;;;;;;;2.60;1.75;;;;;;;24.34;54.93;100863.72;5033375;28;20418;-81
2021/07/18 09:50:19;;;;;;;5.03;1.95;;;;;;;24.53;53.91;100867.00;5004265;28;20401;-81
2021/07/18 09:52:48;;;;;;;3.90;1.80;;;;;;;24.70;54.02;100864.16;5025705;28;20403;-82
2021/07/18 09:55:23;;;;;;;4.50;2.25;;;;;;;24.93;54.42;100862.84;5031281;28;20468;-82
2021/07/18 09:57:52;;;;;;;5.35;2.35;;;;;;;25.05;54.30;100860.19;5031863;28;20411;-81
2021/07/18 10:00:22;;;;;;;3.28;2.13;;;;;;;25.07;53.95;100854.31;5028277;28;20821;-81
2021/07/18 10:02:48;;;;;;;10.15;2.05;;;;;;;25.28;54.26;100866.31;5031237;28;20913;-82
2021/07/18 10:05:29;;;;;;;2.08;1.80;;;;;;;25.80;52.45;100858.53;5033122;28;20399;-82
2021/07/18 10:08:09;;;;;;;5.50;2.03;;;;;;;26.69;51.39;100851.56;5031552;28;20403;-81
2021/07/18 10:10:35;;;;;;;6.13;2.70;;;;;;;27.61;47.23;100847.19;5029962;28;20438;-81
2021/07/18 10:13:05;;;;;;;5.35;2.00;;;;;;;29.17;43.62;100844.13;5028951;28;20403;-82
2021/07/18 10:15:31;;;;;;;2.63;1.88;;;;;;;31.56;39.26;100848.69;5044050;28;20412;-81
2021/07/18 10:17:56;;;;;;;6.45;2.10;;;;;;;33.80;34.44;100850.81;5032259;28;20940;-82
2021/07/18 10:20:23;;;;;;;4.63;2.03;;;;;;;35.49;31.18;100852.50;5032204;28;20423;-82
2021/07/18 10:22:52;;;;;;;6.57;1.97;;;;;;;36.57;29.89;100855.44;5032710;28;20421;-82
2021/07/18 10:25:18;;;;;;;7.60;1.90;;;;;;;37.37;28.85;100856.91;5032778;28;20418;-83
2021/07/18 10:27:44;;;;;;;4.07;1.57;;;;;;;37.77;27.70;100846.03;5032021;28;20403;-82
2021/07/18 10:30:12;;;;;;;3.88;2.22;;;;;;;38.14;26.68;100842.38;5031456;28;20418;-82
2021/07/18 10:32:39;;;;;;;3.65;2.00;;;;;;;37.85;26.80;100831.38;5033030;28;20411;-82
2021/07/18 10:35:37;;;;;;;4.07;1.75;;;;;;;38.59;26.16;100840.19;5026017;28;20412;-82
2021/07/18 10:38:15;;;;;;;4.13;1.70;;;;;;;38.81;24.69;100844.31;5029790;28;20405;-82
2021/07/18 10:40:49;;;;;;;4.38;1.70;;;;;;;38.76;25.57;100836.28;5034545;28;20541;-82
2021/07/18 10:43:35;;;;;;;5.05;1.70;;;;;;;39.00;25.30;100845.63;5020677;28;20920;-82
2021/07/18 10:46:01;;;;;;;2.75;1.73;;;;;;;39.26;24.90;100848.47;5012952;28;20389;-82
2021/07/18 10:48:47;;;;;;;4.97;1.90;;;;;;;38.56;25.67;100841.84;5029859;28;20970;-80
2021/07/18 10:51:17;;;;;;;4.32;1.77;;;;;;;38.66;26.22;100832.41;4981335;28;20855;-82
2021/07/18 10:53:43;;;;;;;4.03;1.75;;;;;;;38.62;25.80;100836.50;5039325;28;20416;-82
2021/07/18 10:56:08;;;;;;;5.88;1.88;;;;;;;39.06;25.35;100830.56;5032248;28;20399;-82
2021/07/18 10:58:40;;;;;;;4.70;1.90;;;;;;;39.85;24.57;100836.44;5031099;28;20473;-82
2021/07/18 11:01:11;;;;;;;2.63;1.80;;;;;;;40.50;23.01;100843.22;5033587;28;20403;-80
2021/07/18 11:03:37;;;;;;;4.28;2.00;;;;;;;40.27;23.42;100835.63;5026692;28;20515;-79
2021/07/18 11:06:33;;;;;;;2.80;1.60;;;;;;;39.99;22.63;100827.66;5012405;28;20396;-80
2021/07/18 11:09:18;;;;;;;4.90;1.70;;;;;;;40.23;23.27;100829.22;5029085;28;20406;-80
2021/07/18 11:11:49;;;;;;;3.63;1.98;;;;;;;40.09;22.82;100823.00;5037109;28;20448;-80
2021/07/18 11:14:34;;;;;;;5.47;2.45;;;;;;;39.84;23.64;100824.31;5031752;28;20387;-79
2021/07/18 11:17:20;;;;;;;5.73;2.23;;;;;;;40.07;23.78;100822.63;5019599;28;20766;-79
2021/07/18 11:20:04;;;;;;;5.13;2.30;;;;;;;40.25;22.05;100823.06;5043390;28;20420;-79
2021/07/18 11:23:04;;;;;;;6.03;2.05;;;;;;;39.95;22.99;100818.41;5034663;28;20430;-79
2021/07/18 11:25:48;;;;;;;3.53;2.03;;;;;;;40.12;22.56;100817.28;5034152;28;20417;-79